sensor_id;sensor_type;location;lat;lon;timestamp;pressure;altitude;pressure_sealevel;temperature;humidity
81680;BME280;74989;52.210;5.148;2024-03-22T00:00:40;102116.88;;;11.83;81.94
81680;BME280;74989;52.210;5.148;2024-03-22T00:03:08;102116.50;;;11.79;81.54
81680;BME280;74989;52.210;5.148;2024-03-22T00:05:34;102108.75;;;11.78;81.72
81680;BME280;74989;52.210;5.148;2024-03-22T00:08:02;102099.34;;;11.82;81.69
81680;BME280;74989;52.210;5.148;2024-03-22T00:10:27;102096.91;;;11.80;82.09
81680;BME280;74989;52.210;5.148;2024-03-22T00:12:55;102090.44;;;11.76;82.18
81680;BME280;74989;52.210;5.148;2024-03-22T00:15:22;102087.66;;;11.89;82.00
81680;BME280;74989;52.210;5.148;2024-03-22T00:17:48;102082.94;;;11.91;81.83
81680;BME280;74989;52.210;5.148;2024-03-22T00:20:15;102074.25;;;11.84;82.45
81680;BME280;74989;52.210;5.148;2024-03-22T00:22:43;102073.66;;;11.82;82.05
81680;BME280;74989;52.210;5.148;2024-03-22T00:25:09;102071.59;;;11.84;82.31
81680;BME280;74989;52.210;5.148;2024-03-22T00:27:36;102073.00;;;11.87;82.00
81680;BME280;74989;52.210;5.148;2024-03-22T00:30:03;102072.00;;;11.88;82.40
81680;BME280;74989;52.210;5.148;2024-03-22T00:32:29;102056.84;;;11.95;81.87
81680;BME280;74989;52.210;5.148;2024-03-22T00:34:55;102046.47;;;11.93;81.92
81680;BME280;74989;52.210;5.148;2024-03-22T00:37:24;102044.09;;;11.85;82.05
81680;BME280;74989;52.210;5.148;2024-03-22T00:39:51;102033.59;;;11.79;82.39
81680;BME280;74989;52.210;5.148;2024-03-22T00:42:17;102020.84;;;11.87;82.20
81680;BME280;74989;52.210;5.148;2024-03-22T00:44:43;102017.63;;;11.85;81.93
81680;BME280;74989;52.210;5.148;2024-03-22T00:47:09;102028.06;;;11.80;82.12
81680;BME280;74989;52.210;5.148;2024-03-22T00:49:35;102012.59;;;11.77;82.47
81680;BME280;74989;52.210;5.148;2024-03-22T00:52:02;102020.34;;;11.79;82.21
81680;BME280;74989;52.210;5.148;2024-03-22T00:54:29;102018.50;;;11.79;81.77
81680;BME280;74989;52.210;5.148;2024-03-22T00:56:56;102026.66;;;11.78;82.00
81680;BME280;74989;52.210;5.148;2024-03-22T00:59:21;102024.16;;;11.83;81.59
81680;BME280;74989;52.210;5.148;2024-03-22T01:01:50;102015.63;;;11.81;81.38
81680;BME280;74989;52.210;5.148;2024-03-22T01:04:16;102023.66;;;11.74;81.91
81680;BME280;74989;52.210;5.148;2024-03-22T01:06:45;102015.94;;;11.66;82.24
81680;BME280;74989;52.210;5.148;2024-03-22T01:09:12;102015.94;;;11.66;81.69
81680;BME280;74989;52.210;5.148;2024-03-22T01:11:40;102022.44;;;11.70;81.79
81680;BME280;74989;52.210;5.148;2024-03-22T01:14:05;102015.13;;;11.72;81.80
81680;BME280;74989;52.210;5.148;2024-03-22T01:16:32;102003.38;;;11.61;81.68
81680;BME280;74989;52.210;5.148;2024-03-22T01:19:00;102006.34;;;11.71;81.66
81680;BME280;74989;52.210;5.148;2024-03-22T01:21:26;102014.56;;;11.82;81.47
81680;BME280;74989;52.210;5.148;2024-03-22T01:23:53;102012.16;;;11.80;81.22
81680;BME280;74989;52.210;5.148;2024-03-22T01:26:19;102006.72;;;11.75;81.34
81680;BME280;74989;52.210;5.148;2024-03-22T01:28:47;102000.75;;;11.80;81.37
81680;BME280;74989;52.210;5.148;2024-03-22T01:31:14;102004.81;;;11.82;81.11
81680;BME280;74989;52.210;5.148;2024-03-22T01:33:41;101996.13;;;11.75;80.95
81680;BME280;74989;52.210;5.148;2024-03-22T01:36:08;102006.19;;;11.85;80.94
81680;BME280;74989;52.210;5.148;2024-03-22T01:38:34;101996.50;;;11.79;81.05
81680;BME280;74989;52.210;5.148;2024-03-22T01:41:02;102001.81;;;11.79;81.18
81680;BME280;74989;52.210;5.148;2024-03-22T01:43:27;101990.63;;;11.77;81.08
81680;BME280;74989;52.210;5.148;2024-03-22T01:45:55;101999.34;;;11.77;80.93
81680;BME280;74989;52.210;5.148;2024-03-22T01:48:21;102003.25;;;11.74;81.10
81680;BME280;74989;52.210;5.148;2024-03-22T01:50:50;101997.00;;;11.69;80.97
81680;BME280;74989;52.210;5.148;2024-03-22T01:53:16;101993.13;;;11.71;81.29
81680;BME280;74989;52.210;5.148;2024-03-22T01:55:43;101993.69;;;11.73;80.72
81680;BME280;74989;52.210;5.148;2024-03-22T01:58:08;101994.88;;;11.78;80.47
81680;BME280;74989;52.210;5.148;2024-03-22T02:00:35;101988.16;;;11.75;80.65
81680;BME280;74989;52.210;5.148;2024-03-22T02:03:02;101982.28;;;11.73;80.70
81680;BME280;74989;52.210;5.148;2024-03-22T02:05:31;101987.81;;;11.71;80.82
81680;BME280;74989;52.210;5.148;2024-03-22T02:07:57;101984.50;;;11.76;80.87
81680;BME280;74989;52.210;5.148;2024-03-22T02:10:23;101982.44;;;11.78;80.36
81680;BME280;74989;52.210;5.148;2024-03-22T02:12:49;101983.25;;;11.79;80.24
81680;BME280;74989;52.210;5.148;2024-03-22T02:15:16;101986.91;;;11.78;80.24
81680;BME280;74989;52.210;5.148;2024-03-22T02:17:41;101984.13;;;11.72;80.13
81680;BME280;74989;52.210;5.148;2024-03-22T02:20:11;101969.63;;;11.75;80.03
81680;BME280;74989;52.210;5.148;2024-03-22T02:22:38;101969.31;;;11.65;79.95
81680;BME280;74989;52.210;5.148;2024-03-22T02:25:06;101977.69;;;11.62;80.25
81680;BME280;74989;52.210;5.148;2024-03-22T02:27:33;101970.34;;;11.64;80.32
81680;BME280;74989;52.210;5.148;2024-03-22T02:29:58;101962.97;;;11.66;80.58
81680;BME280;74989;52.210;5.148;2024-03-22T02:32:26;101953.63;;;11.63;80.08
81680;BME280;74989;52.210;5.148;2024-03-22T02:34:58;101957.09;;;11.64;80.37
81680;BME280;74989;52.210;5.148;2024-03-22T02:37:24;101960.13;;;11.67;80.54
81680;BME280;74989;52.210;5.148;2024-03-22T02:39:52;101947.09;;;11.66;79.94
81680;BME280;74989;52.210;5.148;2024-03-22T02:42:21;101941.66;;;11.61;80.03
81680;BME280;74989;52.210;5.148;2024-03-22T02:44:46;101930.31;;;11.54;80.26
81680;BME280;74989;52.210;5.148;2024-03-22T02:47:14;101925.19;;;11.59;79.91
81680;BME280;74989;52.210;5.148;2024-03-22T02:49:41;101907.75;;;11.51;80.25
81680;BME280;74989;52.210;5.148;2024-03-22T02:52:07;101901.06;;;11.49;80.45
81680;BME280;74989;52.210;5.148;2024-03-22T02:54:33;101901.72;;;11.44;80.69
81680;BME280;74989;52.210;5.148;2024-03-22T02:57:00;101892.31;;;11.48;80.29
81680;BME280;74989;52.210;5.148;2024-03-22T02:59:28;101895.03;;;11.42;80.58
81680;BME280;74989;52.210;5.148;2024-03-22T03:01:55;101885.03;;;11.44;80.81
81680;BME280;74989;52.210;5.148;2024-03-22T03:04:21;101879.75;;;11.44;80.43
81680;BME280;74989;52.210;5.148;2024-03-22T03:06:47;101876.50;;;11.42;80.50
81680;BME280;74989;52.210;5.148;2024-03-22T03:09:14;101881.44;;;11.38;80.60
81680;BME280;74989;52.210;5.148;2024-03-22T03:11:41;101888.41;;;11.33;81.01
81680;BME280;74989;52.210;5.148;2024-03-22T03:14:06;101876.66;;;11.29;80.79
81680;BME280;74989;52.210;5.148;2024-03-22T03:16:34;101862.69;;;11.22;81.21
81680;BME280;74989;52.210;5.148;2024-03-22T03:19:00;101864.75;;;11.20;81.67
81680;BME280;74989;52.210;5.148;2024-03-22T03:21:27;101866.56;;;11.37;80.80
81680;BME280;74989;52.210;5.148;2024-03-22T03:23:52;101857.47;;;11.33;80.75
81680;BME280;74989;52.210;5.148;2024-03-22T03:26:21;101847.63;;;11.22;81.23
81680;BME280;74989;52.210;5.148;2024-03-22T03:28:46;101846.97;;;11.27;80.88
81680;BME280;74989;52.210;5.148;2024-03-22T03:31:13;101830.94;;;11.22;81.24
81680;BME280;74989;52.210;5.148;2024-03-22T03:33:40;101832.09;;;11.26;81.24
81680;BME280;74989;52.210;5.148;2024-03-22T03:36:08;101834.81;;;11.19;80.91
81680;BME280;74989;52.210;5.148;2024-03-22T03:38:33;101833.06;;;11.13;81.41
81680;BME280;74989;52.210;5.148;2024-03-22T03:41:03;101835.25;;;11.16;81.64
81680;BME280;74989;52.210;5.148;2024-03-22T03:43:28;101831.81;;;11.16;81.71
81680;BME280;74989;52.210;5.148;2024-03-22T03:45:55;101815.41;;;11.07;81.55
81680;BME280;74989;52.210;5.148;2024-03-22T03:48:21;101835.63;;;11.20;81.59
81680;BME280;74989;52.210;5.148;2024-03-22T03:50:52;101835.47;;;11.15;81.31
81680;BME280;74989;52.210;5.148;2024-03-22T03:53:20;101835.47;;;11.15;81.77
81680;BME280;74989;52.210;5.148;2024-03-22T03:55:47;101830.84;;;11.10;81.32
81680;BME280;74989;52.210;5.148;2024-03-22T03:58:13;101834.31;;;11.11;81.98
81680;BME280;74989;52.210;5.148;2024-03-22T04:00:41;101824.31;;;11.13;81.36
81680;BME280;74989;52.210;5.148;2024-03-22T04:03:08;101811.38;;;11.04;81.54
81680;BME280;74989;52.210;5.148;2024-03-22T04:05:36;101829.22;;;11.09;81.18
81680;BME280;74989;52.210;5.148;2024-03-22T04:08:04;101822.75;;;11.05;81.39
81680;BME280;74989;52.210;5.148;2024-03-22T04:10:31;101818.38;;;10.99;81.65
81680;BME280;74989;52.210;5.148;2024-03-22T04:12:58;101817.97;;;10.95;81.73
81680;BME280;74989;52.210;5.148;2024-03-22T04:15:24;101817.03;;;10.90;82.11
81680;BME280;74989;52.210;5.148;2024-03-22T04:17:50;101818.63;;;10.91;81.84
81680;BME280;74989;52.210;5.148;2024-03-22T04:20:17;101817.56;;;10.98;81.53
81680;BME280;74989;52.210;5.148;2024-03-22T04:22:43;101822.69;;;10.93;81.86
81680;BME280;74989;52.210;5.148;2024-03-22T04:25:10;101819.63;;;10.96;81.44
81680;BME280;74989;52.210;5.148;2024-03-22T04:27:38;101824.44;;;10.99;81.55
81680;BME280;74989;52.210;5.148;2024-03-22T04:30:06;101802.47;;;10.81;81.79
81680;BME280;74989;52.210;5.148;2024-03-22T04:32:32;101815.63;;;10.87;82.12
81680;BME280;74989;52.210;5.148;2024-03-22T04:34:59;101819.06;;;10.88;81.66
81680;BME280;74989;52.210;5.148;2024-03-22T04:37:24;101825.16;;;10.88;81.92
81680;BME280;74989;52.210;5.148;2024-03-22T04:39:53;101822.25;;;10.96;81.69
81680;BME280;74989;52.210;5.148;2024-03-22T04:42:22;101819.38;;;10.98;81.41
81680;BME280;74989;52.210;5.148;2024-03-22T04:44:49;101819.44;;;10.91;81.56
81680;BME280;74989;52.210;5.148;2024-03-22T04:47:16;101824.09;;;10.96;81.49
81680;BME280;74989;52.210;5.148;2024-03-22T04:49:42;101827.38;;;10.91;81.69
81680;BME280;74989;52.210;5.148;2024-03-22T04:52:10;101822.25;;;10.96;81.65
81680;BME280;74989;52.210;5.148;2024-03-22T04:54:36;101823.19;;;11.02;81.63
81680;BME280;74989;52.210;5.148;2024-03-22T04:57:03;101821.59;;;11.01;81.06
81680;BME280;74989;52.210;5.148;2024-03-22T04:59:32;101822.44;;;10.95;81.47
81680;BME280;74989;52.210;5.148;2024-03-22T05:01:58;101825.66;;;11.03;81.11
81680;BME280;74989;52.210;5.148;2024-03-22T05:04:25;101815.25;;;11.02;80.45
81680;BME280;74989;52.210;5.148;2024-03-22T05:06:52;101825.06;;;11.01;80.78
81680;BME280;74989;52.210;5.148;2024-03-22T05:09:17;101834.25;;;10.99;80.82
81680;BME280;74989;52.210;5.148;2024-03-22T05:11:45;101823.84;;;10.97;80.98
81680;BME280;74989;52.210;5.148;2024-03-22T05:14:15;101820.44;;;10.97;81.20
81680;BME280;74989;52.210;5.148;2024-03-22T05:16:44;101818.47;;;10.86;81.26
81680;BME280;74989;52.210;5.148;2024-03-22T05:19:09;101811.38;;;10.86;81.31
81680;BME280;74989;52.210;5.148;2024-03-22T05:21:36;101818.88;;;10.89;81.18
81680;BME280;74989;52.210;5.148;2024-03-22T05:24:02;101795.06;;;10.71;81.58
81680;BME280;74989;52.210;5.148;2024-03-22T05:26:28;101813.19;;;10.86;81.13
81680;BME280;74989;52.210;5.148;2024-03-22T05:28:57;101813.03;;;10.81;81.61
81680;BME280;74989;52.210;5.148;2024-03-22T05:31:24;101806.56;;;10.77;81.54
81680;BME280;74989;52.210;5.148;2024-03-22T05:33:52;101797.31;;;10.86;81.08
81680;BME280;74989;52.210;5.148;2024-03-22T05:36:19;101805.91;;;10.81;81.26
81680;BME280;74989;52.210;5.148;2024-03-22T05:38:45;101800.84;;;10.80;81.38
81680;BME280;74989;52.210;5.148;2024-03-22T05:41:12;101785.84;;;10.74;81.12
81680;BME280;74989;52.210;5.148;2024-03-22T05:43:37;101788.44;;;10.80;81.21
81680;BME280;74989;52.210;5.148;2024-03-22T05:46:05;101792.50;;;10.83;81.17
81680;BME280;74989;52.210;5.148;2024-03-22T05:48:31;101783.94;;;10.81;81.34
81680;BME280;74989;52.210;5.148;2024-03-22T05:51:01;101789.47;;;10.79;80.87
81680;BME280;74989;52.210;5.148;2024-03-22T05:53:28;101783.16;;;10.80;80.78
81680;BME280;74989;52.210;5.148;2024-03-22T05:55:54;101769.88;;;10.69;80.82
81680;BME280;74989;52.210;5.148;2024-03-22T05:58:20;101790.72;;;10.77;81.26
81680;BME280;74989;52.210;5.148;2024-03-22T06:00:47;101778.81;;;10.86;80.22
81680;BME280;74989;52.210;5.148;2024-03-22T06:03:14;101780.44;;;10.87;80.64
81680;BME280;74989;52.210;5.148;2024-03-22T06:05:42;101771.13;;;10.84;80.73
81680;BME280;74989;52.210;5.148;2024-03-22T06:08:09;101768.25;;;10.86;80.56
81680;BME280;74989;52.210;5.148;2024-03-22T06:10:36;101768.19;;;10.92;80.38
81680;BME280;74989;52.210;5.148;2024-03-22T06:13:01;101765.16;;;10.89;80.19
81680;BME280;74989;52.210;5.148;2024-03-22T06:15:30;101757.22;;;11.07;79.56
81680;BME280;74989;52.210;5.148;2024-03-22T06:17:56;101765.72;;;11.09;79.87
81680;BME280;74989;52.210;5.148;2024-03-22T06:20:22;101769.56;;;11.13;79.94
81680;BME280;74989;52.210;5.148;2024-03-22T06:22:49;101760.44;;;11.09;79.53
81680;BME280;74989;52.210;5.148;2024-03-22T06:25:19;101769.09;;;11.16;79.13
81680;BME280;74989;52.210;5.148;2024-03-22T06:27:44;101757.75;;;11.16;79.18
81680;BME280;74989;52.210;5.148;2024-03-22T06:30:13;101760.22;;;11.29;78.45
81680;BME280;74989;52.210;5.148;2024-03-22T06:32:38;101750.06;;;11.26;78.22
81680;BME280;74989;52.210;5.148;2024-03-22T06:35:06;101765.75;;;11.27;78.24
81680;BME280;74989;52.210;5.148;2024-03-22T06:37:33;101752.38;;;11.22;78.21
81680;BME280;74989;52.210;5.148;2024-03-22T06:40:00;101763.97;;;11.39;77.51
81680;BME280;74989;52.210;5.148;2024-03-22T06:42:27;101769.91;;;11.35;77.64
81680;BME280;74989;52.210;5.148;2024-03-22T06:44:53;101766.00;;;11.37;77.40
81680;BME280;74989;52.210;5.148;2024-03-22T06:47:19;101759.09;;;11.36;77.42
81680;BME280;74989;52.210;5.148;2024-03-22T06:49:48;101762.34;;;11.38;77.45
81680;BME280;74989;52.210;5.148;2024-03-22T06:52:13;101744.09;;;11.30;77.08
81680;BME280;74989;52.210;5.148;2024-03-22T06:54:40;101767.97;;;11.42;77.24
81680;BME280;74989;52.210;5.148;2024-03-22T06:57:06;101764.97;;;11.38;77.40
81680;BME280;74989;52.210;5.148;2024-03-22T06:59:34;101754.63;;;11.37;77.51
81680;BME280;74989;52.210;5.148;2024-03-22T07:02:01;101738.31;;;11.22;77.46
81680;BME280;74989;52.210;5.148;2024-03-22T07:04:28;101762.56;;;11.37;77.69
81680;BME280;74989;52.210;5.148;2024-03-22T07:06:53;101760.78;;;11.31;78.03
81680;BME280;74989;52.210;5.148;2024-03-22T07:09:21;101766.22;;;11.36;77.69
81680;BME280;74989;52.210;5.148;2024-03-22T07:11:47;101736.13;;;11.19;77.80
81680;BME280;74989;52.210;5.148;2024-03-22T07:14:14;101747.34;;;11.32;77.86
81680;BME280;74989;52.210;5.148;2024-03-22T07:16:41;101766.59;;;11.39;77.57
81680;BME280;74989;52.210;5.148;2024-03-22T07:19:09;101771.09;;;11.39;77.75
81680;BME280;74989;52.210;5.148;2024-03-22T07:21:35;101746.22;;;11.40;77.38
81680;BME280;74989;52.210;5.148;2024-03-22T07:24:02;101765.59;;;11.52;77.15
81680;BME280;74989;52.210;5.148;2024-03-22T07:26:29;101769.84;;;11.41;77.72
81680;BME280;74989;52.210;5.148;2024-03-22T07:28:56;101742.22;;;11.19;77.70
81680;BME280;74989;52.210;5.148;2024-03-22T07:31:21;101757.84;;;11.39;78.06
81680;BME280;74989;52.210;5.148;2024-03-22T07:33:50;101769.25;;;11.39;78.10
81680;BME280;74989;52.210;5.148;2024-03-22T07:36:15;101753.09;;;11.29;78.14
81680;BME280;74989;52.210;5.148;2024-03-22T07:38:44;101758.44;;;11.41;78.12
81680;BME280;74989;52.210;5.148;2024-03-22T07:41:09;101764.75;;;11.40;78.23
81680;BME280;74989;52.210;5.148;2024-03-22T07:43:36;101754.34;;;11.27;78.80
81680;BME280;74989;52.210;5.148;2024-03-22T07:46:02;101772.78;;;11.33;78.83
81680;BME280;74989;52.210;5.148;2024-03-22T07:48:29;101767.72;;;11.32;79.28
81680;BME280;74989;52.210;5.148;2024-03-22T07:51:00;101756.84;;;11.22;79.47
81680;BME280;74989;52.210;5.148;2024-03-22T07:53:27;101754.88;;;11.17;79.55
81680;BME280;74989;52.210;5.148;2024-03-22T07:55:53;101766.19;;;11.24;79.74
81680;BME280;74989;52.210;5.148;2024-03-22T07:58:19;101761.13;;;11.23;79.91
81680;BME280;74989;52.210;5.148;2024-03-22T08:00:46;101756.84;;;11.22;79.87
81680;BME280;74989;52.210;5.148;2024-03-22T08:03:15;101763.38;;;11.19;79.85
81680;BME280;74989;52.210;5.148;2024-03-22T08:05:41;101760.16;;;11.17;80.24
81680;BME280;74989;52.210;5.148;2024-03-22T08:08:09;101761.91;;;11.23;80.05
81680;BME280;74989;52.210;5.148;2024-03-22T08:10:35;101759.88;;;11.25;80.00
81680;BME280;74989;52.210;5.148;2024-03-22T08:13:03;101757.84;;;11.21;80.24
81680;BME280;74989;52.210;5.148;2024-03-22T08:15:29;101764.09;;;11.26;80.26
81680;BME280;74989;52.210;5.148;2024-03-22T08:17:59;101756.16;;;11.26;80.15
81680;BME280;74989;52.210;5.148;2024-03-22T08:20:25;101764.09;;;11.26;80.78
81680;BME280;74989;52.210;5.148;2024-03-22T08:22:54;101763.16;;;11.21;80.87
81680;BME280;74989;52.210;5.148;2024-03-22T08:25:21;101766.75;;;11.26;80.89
81680;BME280;74989;52.210;5.148;2024-03-22T08:27:51;101760.66;;;11.26;81.01
81680;BME280;74989;52.210;5.148;2024-03-22T08:30:20;101762.50;;;11.25;81.03
81680;BME280;74989;52.210;5.148;2024-03-22T08:32:47;101760.50;;;11.39;80.38
81680;BME280;74989;52.210;5.148;2024-03-22T08:35:14;101759.53;;;11.33;80.63
81680;BME280;74989;52.210;5.148;2024-03-22T08:37:43;101738.59;;;11.14;81.61
81680;BME280;74989;52.210;5.148;2024-03-22T08:40:11;101753.63;;;11.20;82.02
81680;BME280;74989;52.210;5.148;2024-03-22T08:42:40;101758.91;;;11.20;82.58
81680;BME280;74989;52.210;5.148;2024-03-22T08:45:08;101764.06;;;11.15;83.06
81680;BME280;74989;52.210;5.148;2024-03-22T08:47:36;101752.88;;;11.13;83.51
81680;BME280;74989;52.210;5.148;2024-03-22T08:50:03;101732.19;;;10.91;84.09
81680;BME280;74989;52.210;5.148;2024-03-22T08:52:30;101750.09;;;11.07;84.12
81680;BME280;74989;52.210;5.148;2024-03-22T08:54:57;101742.97;;;11.08;84.23
81680;BME280;74989;52.210;5.148;2024-03-22T08:57:24;101749.66;;;11.11;84.33
81680;BME280;74989;52.210;5.148;2024-03-22T08:59:51;101746.69;;;11.19;84.20
81680;BME280;74989;52.210;5.148;2024-03-22T09:02:18;101745.19;;;11.11;84.34
81680;BME280;74989;52.210;5.148;2024-03-22T09:04:44;101733.63;;;11.05;84.31
81680;BME280;74989;52.210;5.148;2024-03-22T09:07:10;101758.53;;;11.16;84.51
81680;BME280;74989;52.210;5.148;2024-03-22T09:09:36;101745.31;;;11.16;84.60
81680;BME280;74989;52.210;5.148;2024-03-22T09:12:03;101745.97;;;11.12;84.96
81680;BME280;74989;52.210;5.148;2024-03-22T09:14:29;101751.41;;;11.17;84.97
81680;BME280;74989;52.210;5.148;2024-03-22T09:16:57;101745.19;;;11.11;85.14
81680;BME280;74989;52.210;5.148;2024-03-22T09:19:23;101743.31;;;11.12;85.01
81680;BME280;74989;52.210;5.148;2024-03-22T09:21:49;101755.97;;;11.10;85.80
81680;BME280;74989;52.210;5.148;2024-03-22T09:24:16;101746.78;;;11.12;84.85
81680;BME280;74989;52.210;5.148;2024-03-22T09:26:43;101747.88;;;11.04;85.58
81680;BME280;74989;52.210;5.148;2024-03-22T09:29:08;101735.69;;;11.03;86.01
81680;BME280;74989;52.210;5.148;2024-03-22T09:31:35;101741.19;;;11.02;85.44
81680;BME280;74989;52.210;5.148;2024-03-22T09:34:02;101753.41;;;11.03;85.50
81680;BME280;74989;52.210;5.148;2024-03-22T09:36:29;101746.72;;;11.00;85.82
81680;BME280;74989;52.210;5.148;2024-03-22T09:38:59;101729.44;;;10.98;85.85
81680;BME280;74989;52.210;5.148;2024-03-22T09:41:26;101738.50;;;11.09;86.30
81680;BME280;74989;52.210;5.148;2024-03-22T09:43:52;101730.56;;;11.09;86.14
81680;BME280;74989;52.210;5.148;2024-03-22T09:46:20;101736.44;;;11.11;85.83
81680;BME280;74989;52.210;5.148;2024-03-22T09:48:47;101738.03;;;11.12;85.87
81680;BME280;74989;52.210;5.148;2024-03-22T09:51:16;101744.72;;;11.14;86.15
81680;BME280;74989;52.210;5.148;2024-03-22T09:53:44;101738.84;;;11.12;86.38
81680;BME280;74989;52.210;5.148;2024-03-22T09:56:15;101733.78;;;11.11;86.41
81680;BME280;74989;52.210;5.148;2024-03-22T09:58:42;101729.56;;;11.21;86.20
81680;BME280;74989;52.210;5.148;2024-03-22T10:01:10;101726.09;;;11.21;86.59
81680;BME280;74989;52.210;5.148;2024-03-22T10:03:37;101722.88;;;11.19;86.39
81680;BME280;74989;52.210;5.148;2024-03-22T10:06:06;101731.88;;;11.18;86.56
81680;BME280;74989;52.210;5.148;2024-03-22T10:08:34;101721.63;;;11.21;86.03
81680;BME280;74989;52.210;5.148;2024-03-22T10:11:01;101718.41;;;11.19;86.41
81680;BME280;74989;52.210;5.148;2024-03-22T10:13:27;101723.84;;;11.24;86.60
81680;BME280;74989;52.210;5.148;2024-03-22T10:15:54;101723.75;;;11.31;86.46
81680;BME280;74989;52.210;5.148;2024-03-22T10:18:20;101722.72;;;11.32;86.77
81680;BME280;74989;52.210;5.148;2024-03-22T10:20:47;101727.69;;;11.40;86.41
81680;BME280;74989;52.210;5.148;2024-03-22T10:23:14;101719.28;;;11.31;86.38
81680;BME280;74989;52.210;5.148;2024-03-22T10:25:42;101727.00;;;11.44;86.05
81680;BME280;74989;52.210;5.148;2024-03-22T10:28:08;101723.13;;;11.47;86.55
81680;BME280;74989;52.210;5.148;2024-03-22T10:30:40;101714.47;;;11.40;86.15
81680;BME280;74989;52.210;5.148;2024-03-22T10:33:07;101715.50;;;11.39;85.96
81680;BME280;74989;52.210;5.148;2024-03-22T10:35:34;101730.63;;;11.50;86.15
81680;BME280;74989;52.210;5.148;2024-03-22T10:38:03;101725.91;;;11.52;86.44
81680;BME280;74989;52.210;5.148;2024-03-22T10:40:31;101722.44;;;11.51;85.82
81680;BME280;74989;52.210;5.148;2024-03-22T10:42:58;101723.50;;;11.50;85.58
81680;BME280;74989;52.210;5.148;2024-03-22T10:45:26;101720.84;;;11.50;85.82
81680;BME280;74989;52.210;5.148;2024-03-22T10:47:54;101726.03;;;11.57;85.42
81680;BME280;74989;52.210;5.148;2024-03-22T10:50:22;101726.47;;;11.54;85.76
81680;BME280;74989;52.210;5.148;2024-03-22T10:52:52;101721.66;;;11.51;85.77
81680;BME280;74989;52.210;5.148;2024-03-22T10:55:24;101717.84;;;11.58;85.86
81680;BME280;74989;52.210;5.148;2024-03-22T10:57:53;101719.38;;;11.66;85.88
81680;BME280;74989;52.210;5.148;2024-03-22T11:00:28;101714.75;;;11.61;85.25
81680;BME280;74989;52.210;5.148;2024-03-22T11:02:54;101719.94;;;11.56;85.66
81680;BME280;74989;52.210;5.148;2024-03-22T11:05:21;101721.44;;;11.64;85.21
81680;BME280;74989;52.210;5.148;2024-03-22T11:07:47;101703.34;;;11.49;85.89
81680;BME280;74989;52.210;5.148;2024-03-22T11:10:14;101692.16;;;11.47;85.67
81680;BME280;74989;52.210;5.148;2024-03-22T11:12:40;101711.88;;;11.63;85.42
81680;BME280;74989;52.210;5.148;2024-03-22T11:15:07;101712.50;;;11.65;85.63
81680;BME280;74989;52.210;5.148;2024-03-22T11:17:36;101685.47;;;11.45;86.08
81680;BME280;74989;52.210;5.148;2024-03-22T11:20:04;101716.25;;;11.57;86.25
81680;BME280;74989;52.210;5.148;2024-03-22T11:22:31;101704.03;;;11.56;86.40
81680;BME280;74989;52.210;5.148;2024-03-22T11:24:58;101703.00;;;11.46;86.05
81680;BME280;74989;52.210;5.148;2024-03-22T11:27:24;101705.28;;;11.54;86.82
81680;BME280;74989;52.210;5.148;2024-03-22T11:29:51;101680.06;;;11.40;86.46
81680;BME280;74989;52.210;5.148;2024-03-22T11:32:22;101703.22;;;11.56;86.15
81680;BME280;74989;52.210;5.148;2024-03-22T11:34:51;101698.06;;;11.61;86.38
81680;BME280;74989;52.210;5.148;2024-03-22T11:37:17;101693.25;;;11.58;86.30
81680;BME280;74989;52.210;5.148;2024-03-22T11:39:43;101701.91;;;11.65;86.83
81680;BME280;74989;52.210;5.148;2024-03-22T11:42:09;101675.50;;;11.58;86.56
81680;BME280;74989;52.210;5.148;2024-03-22T11:44:37;101666.78;;;11.58;86.77
81680;BME280;74989;52.210;5.148;2024-03-22T11:47:07;101696.41;;;11.78;86.93
81680;BME280;74989;52.210;5.148;2024-03-22T11:49:34;101683.63;;;11.87;85.76
81680;BME280;74989;52.210;5.148;2024-03-22T11:52:15;101673.84;;;11.76;85.85
81680;BME280;74989;52.210;5.148;2024-03-22T11:54:43;101665.09;;;11.75;86.06
81680;BME280;74989;52.210;5.148;2024-03-22T11:57:15;101682.75;;;11.93;85.81
81680;BME280;74989;52.210;5.148;2024-03-22T11:59:42;101656.81;;;11.71;86.14
81680;BME280;74989;52.210;5.148;2024-03-22T12:02:09;101681.47;;;11.95;85.74
81680;BME280;74989;52.210;5.148;2024-03-22T12:04:40;101686.19;;;11.93;85.78
81680;BME280;74989;52.210;5.148;2024-03-22T12:07:10;101669.38;;;11.88;84.80
81680;BME280;74989;52.210;5.148;2024-03-22T12:09:38;101661.06;;;11.72;85.19
81680;BME280;74989;52.210;5.148;2024-03-22T12:12:06;101673.16;;;11.80;85.28
81680;BME280;74989;52.210;5.148;2024-03-22T12:14:34;101657.25;;;11.68;85.29
81680;BME280;74989;52.210;5.148;2024-03-22T12:17:02;101652.59;;;11.64;85.71
81680;BME280;74989;52.210;5.148;2024-03-22T12:19:29;101656.00;;;11.71;85.46
81680;BME280;74989;52.210;5.148;2024-03-22T12:21:57;101674.78;;;11.93;85.25
81680;BME280;74989;52.210;5.148;2024-03-22T12:24:28;101654.16;;;11.83;85.50
81680;BME280;74989;52.210;5.148;2024-03-22T12:26:55;101652.66;;;11.99;84.95
81680;BME280;74989;52.210;5.148;2024-03-22T12:29:24;101665.72;;;12.00;84.92
81680;BME280;74989;52.210;5.148;2024-03-22T12:31:51;101663.97;;;12.06;84.50
81680;BME280;74989;52.210;5.148;2024-03-22T12:34:18;101637.91;;;11.80;84.49
81680;BME280;74989;52.210;5.148;2024-03-22T12:36:44;101661.75;;;11.91;84.57
81680;BME280;74989;52.210;5.148;2024-03-22T12:39:11;101663.25;;;11.99;84.67
81680;BME280;74989;52.210;5.148;2024-03-22T12:41:38;101657.84;;;12.05;85.12
81680;BME280;74989;52.210;5.148;2024-03-22T12:44:06;101632.28;;;11.99;84.92
81680;BME280;74989;52.210;5.148;2024-03-22T12:46:32;101651.41;;;12.13;85.23
81680;BME280;74989;52.210;5.148;2024-03-22T12:49:01;101619.16;;;12.16;85.77